ZIW YPJT-YMDN
Flight info
| Callsign | ZIW |
|---|---|
| Flight time | 1h 2m |
| Altitude | 9500 |
| Route | YMDN |
| Aircraft | DA42/L-SBDGRY/S |
Departure
| Time | 2026-05-06 09:55 |
|---|---|
| Airport | Perth Jandakot Airport (YPJT) |
Arrival
| Time | 2026-05-06 10:58 |
|---|---|
| Airport | Merredin Airport (YMDN) |
| Time | Latitude | Longitude | Altitude | Speed | Heading |
|---|---|---|---|---|---|
| 2026-05-06 09:33 | -32.09526 | 115.87952 | 105 ft | 0 kts | 55° |
| 2026-05-06 09:48 | -32.09526 | 115.87960 | 105 ft | 1 kts | 97° |
| 2026-05-06 09:48 | -32.09529 | 115.87977 | 105 ft | 2 kts | 112° |
| 2026-05-06 09:48 | -32.09541 | 115.87990 | 105 ft | 1 kts | 168° |
| 2026-05-06 09:48 | -32.09553 | 115.87986 | 105 ft | 2 kts | 204° |
| 2026-05-06 09:49 | -32.09571 | 115.87968 | 105 ft | 4 kts | 225° |
| 2026-05-06 09:49 | -32.09592 | 115.87936 | 105 ft | 5 kts | 234° |
| 2026-05-06 09:49 | -32.09618 | 115.87894 | 105 ft | 7 kts | 234° |
| 2026-05-06 09:49 | -32.09649 | 115.87843 | 105 ft | 8 kts | 234° |
| 2026-05-06 09:50 | -32.09684 | 115.87785 | 105 ft | 9 kts | 234° |
| 2026-05-06 09:50 | -32.09723 | 115.87722 | 105 ft | 9 kts | 233° |
| 2026-05-06 09:50 | -32.09765 | 115.87653 | 105 ft | 10 kts | 234° |
| 2026-05-06 09:50 | -32.09808 | 115.87582 | 104 ft | 10 kts | 234° |
| 2026-05-06 09:51 | -32.09841 | 115.87528 | 105 ft | 5 kts | 235° |
| 2026-05-06 09:51 | -32.09875 | 115.87473 | 104 ft | 9 kts | 232° |
| 2026-05-06 09:51 | -32.09910 | 115.87426 | 104 ft | 9 kts | 182° |
| 2026-05-06 09:51 | -32.09947 | 115.87440 | 104 ft | 2 kts | 161° |
| 2026-05-06 09:52 | -32.09948 | 115.87440 | 104 ft | 0 kts | 162° |
| 2026-05-06 09:53 | -32.09951 | 115.87441 | 104 ft | 1 kts | 157° |
| 2026-05-06 09:53 | -32.09984 | 115.87472 | 104 ft | 9 kts | 118° |
| 2026-05-06 09:53 | -32.10004 | 115.87542 | 104 ft | 8 kts | 115° |
| 2026-05-06 09:53 | -32.10030 | 115.87607 | 104 ft | 8 kts | 113° |
| 2026-05-06 09:54 | -32.10048 | 115.87656 | 104 ft | 0 kts | 115° |
| 2026-05-06 09:54 | -32.10051 | 115.87662 | 104 ft | 1 kts | 115° |
| 2026-05-06 09:54 | -32.10056 | 115.87676 | 104 ft | 2 kts | 115° |
| 2026-05-06 09:54 | -32.10068 | 115.87727 | 104 ft | 5 kts | 52° |
| 2026-05-06 09:55 | -32.09916 | 115.87980 | 105 ft | 72 kts | 54° |
| 2026-05-06 09:55 | -32.09566 | 115.88553 | 223 ft | 91 kts | 57° |
| 2026-05-06 09:55 | -32.09181 | 115.89122 | 564 ft | 88 kts | 53° |
| 2026-05-06 09:55 | -32.08828 | 115.89697 | 881 ft | 84 kts | 74° |
| 2026-05-06 09:56 | -32.08835 | 115.90416 | 1062 ft | 99 kts | 108° |
| 2026-05-06 09:56 | -32.09264 | 115.91074 | 1360 ft | 106 kts | 136° |
| 2026-05-06 09:56 | -32.09920 | 115.91611 | 1503 ft | 121 kts | 139° |
| 2026-05-06 09:56 | -32.10657 | 115.92184 | 1499 ft | 139 kts | 141° |
| 2026-05-06 09:57 | -32.11480 | 115.92837 | 1543 ft | 144 kts | 140° |
| 2026-05-06 09:57 | -32.12299 | 115.93537 | 1531 ft | 150 kts | 139° |
| 2026-05-06 09:57 | -32.13015 | 115.94409 | 1556 ft | 147 kts | 119° |
| 2026-05-06 09:57 | -32.13413 | 115.95537 | 1549 ft | 147 kts | 104° |
| 2026-05-06 09:58 | -32.13663 | 115.96711 | 1522 ft | 150 kts | 102° |
| 2026-05-06 09:58 | -32.13895 | 115.97913 | 1593 ft | 145 kts | 102° |
| 2026-05-06 09:58 | -32.14099 | 115.99026 | 1819 ft | 133 kts | 100° |
| 2026-05-06 09:58 | -32.14311 | 116.00034 | 2178 ft | 119 kts | 109° |
| 2026-05-06 09:59 | -32.14606 | 116.00929 | 2472 ft | 116 kts | 105° |
| 2026-05-06 09:59 | -32.14812 | 116.01887 | 2584 ft | 124 kts | 94° |
| 2026-05-06 09:59 | -32.14778 | 116.02915 | 2775 ft | 124 kts | 90° |
| 2026-05-06 09:59 | -32.14826 | 116.03915 | 3002 ft | 122 kts | 93° |
| 2026-05-06 10:00 | -32.14934 | 116.04934 | 3185 ft | 125 kts | 97° |
| 2026-05-06 10:00 | -32.15051 | 116.05949 | 3385 ft | 126 kts | 94° |
| 2026-05-06 10:00 | -32.15123 | 116.07004 | 3492 ft | 133 kts | 94° |
| 2026-05-06 10:00 | -32.15199 | 116.08124 | 3512 ft | 142 kts | 92° |
| 2026-05-06 10:01 | -32.15229 | 116.09303 | 3515 ft | 146 kts | 92° |
| 2026-05-06 10:01 | -32.15294 | 116.10519 | 3526 ft | 149 kts | 94° |
| 2026-05-06 10:01 | -32.15396 | 116.11752 | 3518 ft | 151 kts | 95° |
| 2026-05-06 10:01 | -32.15390 | 116.12993 | 3501 ft | 151 kts | 82° |
| 2026-05-06 10:02 | -32.15151 | 116.14204 | 3509 ft | 151 kts | 77° |
| 2026-05-06 10:02 | -32.14948 | 116.15427 | 3518 ft | 150 kts | 81° |
| 2026-05-06 10:02 | -32.14784 | 116.16649 | 3505 ft | 151 kts | 82° |
| 2026-05-06 10:02 | -32.14600 | 116.17885 | 3523 ft | 150 kts | 79° |
| 2026-05-06 10:03 | -32.14366 | 116.19083 | 3492 ft | 153 kts | 76° |
| 2026-05-06 10:03 | -32.14096 | 116.20306 | 3507 ft | 151 kts | 77° |
| 2026-05-06 10:03 | -32.13919 | 116.21526 | 3505 ft | 152 kts | 83° |
| 2026-05-06 10:03 | -32.13750 | 116.22742 | 3515 ft | 151 kts | 81° |
| 2026-05-06 10:04 | -32.13586 | 116.23982 | 3512 ft | 151 kts | 81° |
| 2026-05-06 10:04 | -32.13398 | 116.25201 | 3512 ft | 151 kts | 80° |
| 2026-05-06 10:04 | -32.13203 | 116.26427 | 3512 ft | 151 kts | 80° |
| 2026-05-06 10:04 | -32.13002 | 116.27657 | 3509 ft | 151 kts | 80° |
| 2026-05-06 10:05 | -32.12803 | 116.28864 | 3507 ft | 151 kts | 80° |
| 2026-05-06 10:05 | -32.12546 | 116.30077 | 3499 ft | 151 kts | 71° |
| 2026-05-06 10:05 | -32.12194 | 116.31259 | 3509 ft | 152 kts | 72° |
| 2026-05-06 10:05 | -32.11835 | 116.32437 | 3510 ft | 151 kts | 72° |
| 2026-05-06 10:06 | -32.11483 | 116.33601 | 3518 ft | 151 kts | 72° |
| 2026-05-06 10:06 | -32.11131 | 116.34770 | 3521 ft | 151 kts | 72° |
| 2026-05-06 10:06 | -32.10778 | 116.35941 | 3523 ft | 151 kts | 72° |
| 2026-05-06 10:06 | -32.10421 | 116.37116 | 3524 ft | 151 kts | 72° |
| 2026-05-06 10:07 | -32.10066 | 116.38293 | 3525 ft | 152 kts | 72° |
| 2026-05-06 10:07 | -32.09712 | 116.39464 | 3525 ft | 151 kts | 72° |
| 2026-05-06 10:07 | -32.09358 | 116.40633 | 3525 ft | 151 kts | 72° |
| 2026-05-06 10:07 | -32.09006 | 116.41791 | 3526 ft | 151 kts | 72° |
| 2026-05-06 10:08 | -32.08654 | 116.42956 | 3525 ft | 151 kts | 72° |
| 2026-05-06 10:08 | -32.08295 | 116.44143 | 3527 ft | 151 kts | 72° |
| 2026-05-06 10:08 | -32.07940 | 116.45312 | 3525 ft | 151 kts | 72° |
| 2026-05-06 10:08 | -32.07587 | 116.46481 | 3526 ft | 151 kts | 72° |
| 2026-05-06 10:09 | -32.07234 | 116.47652 | 3525 ft | 151 kts | 72° |
| 2026-05-06 10:09 | -32.06879 | 116.48824 | 3525 ft | 152 kts | 72° |
| 2026-05-06 10:09 | -32.06524 | 116.49997 | 3525 ft | 152 kts | 72° |
| 2026-05-06 10:09 | -32.06167 | 116.51173 | 3524 ft | 152 kts | 72° |
| 2026-05-06 10:10 | -32.05809 | 116.52351 | 3524 ft | 152 kts | 72° |
| 2026-05-06 10:10 | -32.05732 | 116.53556 | 3513 ft | 153 kts | 110° |
| 2026-05-06 10:10 | -32.06285 | 116.54623 | 3521 ft | 154 kts | 120° |
| 2026-05-06 10:10 | -32.06893 | 116.55660 | 3519 ft | 154 kts | 122° |
| 2026-05-06 10:11 | -32.07512 | 116.56700 | 3517 ft | 154 kts | 122° |
| 2026-05-06 10:11 | -32.08129 | 116.57746 | 3513 ft | 153 kts | 118° |
| 2026-05-06 10:11 | -32.08313 | 116.58931 | 3518 ft | 149 kts | 90° |
| 2026-05-06 10:11 | -32.08337 | 116.60164 | 3517 ft | 150 kts | 90° |
| 2026-05-06 10:12 | -32.08334 | 116.61395 | 3515 ft | 151 kts | 90° |
| 2026-05-06 10:12 | -32.08332 | 116.62630 | 3513 ft | 151 kts | 90° |
| 2026-05-06 10:12 | -32.08329 | 116.63860 | 3516 ft | 151 kts | 90° |
| 2026-05-06 10:12 | -32.08322 | 116.65112 | 3521 ft | 151 kts | 90° |
| 2026-05-06 10:13 | -32.08315 | 116.66351 | 3522 ft | 151 kts | 89° |
| 2026-05-06 10:13 | -32.08306 | 116.67588 | 3523 ft | 151 kts | 89° |
| 2026-05-06 10:13 | -32.08180 | 116.68802 | 3517 ft | 152 kts | 71° |
| 2026-05-06 10:13 | -32.07789 | 116.69951 | 3542 ft | 150 kts | 70° |
| 2026-05-06 10:14 | -32.07417 | 116.70988 | 4011 ft | 125 kts | 69° |
| 2026-05-06 10:14 | -32.07094 | 116.71883 | 4410 ft | 114 kts | 69° |
| 2026-05-06 10:14 | -32.06829 | 116.72746 | 4723 ft | 113 kts | 73° |
| 2026-05-06 10:14 | -32.06578 | 116.73624 | 5018 ft | 114 kts | 73° |
| 2026-05-06 10:15 | -32.06331 | 116.74505 | 5310 ft | 114 kts | 73° |
| 2026-05-06 10:15 | -32.06083 | 116.75392 | 5592 ft | 116 kts | 73° |
| 2026-05-06 10:15 | -32.05832 | 116.76289 | 5882 ft | 116 kts | 73° |
| 2026-05-06 10:15 | -32.05577 | 116.77209 | 6165 ft | 118 kts | 73° |
| 2026-05-06 10:16 | -32.05322 | 116.78123 | 6446 ft | 119 kts | 73° |
| 2026-05-06 10:16 | -32.05060 | 116.79057 | 6724 ft | 121 kts | 73° |
| 2026-05-06 10:16 | -32.04792 | 116.80003 | 7000 ft | 122 kts | 73° |
| 2026-05-06 10:16 | -32.04521 | 116.80947 | 7279 ft | 123 kts | 73° |
| 2026-05-06 10:17 | -32.04241 | 116.81918 | 7494 ft | 129 kts | 73° |
| 2026-05-06 10:17 | -32.03943 | 116.82965 | 7534 ft | 143 kts | 73° |
| 2026-05-06 10:17 | -32.03616 | 116.84125 | 7537 ft | 153 kts | 73° |
| 2026-05-06 10:17 | -32.03274 | 116.85342 | 7533 ft | 158 kts | 73° |
| 2026-05-06 10:18 | -32.02929 | 116.86590 | 7532 ft | 161 kts | 73° |
| 2026-05-06 10:18 | -32.02584 | 116.87849 | 7533 ft | 163 kts | 73° |
| 2026-05-06 10:18 | -32.02235 | 116.89132 | 7532 ft | 164 kts | 73° |
| 2026-05-06 10:18 | -32.01890 | 116.90404 | 7533 ft | 164 kts | 73° |
| 2026-05-06 10:19 | -32.01539 | 116.91698 | 7536 ft | 165 kts | 74° |
| 2026-05-06 10:19 | -32.01191 | 116.92976 | 7535 ft | 165 kts | 73° |
| 2026-05-06 10:19 | -32.00839 | 116.94270 | 7535 ft | 166 kts | 73° |
| 2026-05-06 10:19 | -32.00486 | 116.95564 | 7534 ft | 166 kts | 73° |
| 2026-05-06 10:20 | -32.00135 | 116.96842 | 7533 ft | 166 kts | 74° |
| 2026-05-06 10:20 | -31.99776 | 116.98135 | 7533 ft | 165 kts | 74° |
| 2026-05-06 10:20 | -31.99415 | 116.99429 | 7530 ft | 165 kts | 74° |
| 2026-05-06 10:20 | -31.99058 | 117.00701 | 7530 ft | 165 kts | 73° |
| 2026-05-06 10:21 | -31.98700 | 117.01992 | 7533 ft | 164 kts | 74° |
| 2026-05-06 10:21 | -31.98351 | 117.03261 | 7535 ft | 164 kts | 74° |
| 2026-05-06 10:21 | -31.98000 | 117.04553 | 7535 ft | 164 kts | 74° |
| 2026-05-06 10:21 | -31.97656 | 117.05829 | 7534 ft | 165 kts | 74° |
| 2026-05-06 10:22 | -31.97308 | 117.07126 | 7535 ft | 165 kts | 74° |
| 2026-05-06 10:22 | -31.96964 | 117.08405 | 7536 ft | 165 kts | 74° |
| 2026-05-06 10:22 | -31.96618 | 117.09692 | 7534 ft | 165 kts | 74° |
| 2026-05-06 10:22 | -31.96270 | 117.10984 | 7534 ft | 164 kts | 74° |
| 2026-05-06 10:23 | -31.95924 | 117.12255 | 7539 ft | 164 kts | 74° |
| 2026-05-06 10:23 | -31.95570 | 117.13542 | 7545 ft | 164 kts | 74° |
| 2026-05-06 10:23 | -31.95220 | 117.14809 | 7549 ft | 164 kts | 74° |
| 2026-05-06 10:23 | -31.94863 | 117.16087 | 7550 ft | 164 kts | 74° |
| 2026-05-06 10:24 | -31.94507 | 117.17369 | 7550 ft | 164 kts | 74° |
| 2026-05-06 10:24 | -31.94153 | 117.18651 | 7551 ft | 164 kts | 74° |
| 2026-05-06 10:24 | -31.93802 | 117.19933 | 7550 ft | 164 kts | 74° |
| 2026-05-06 10:24 | -31.93453 | 117.21214 | 7547 ft | 164 kts | 74° |
| 2026-05-06 10:25 | -31.93105 | 117.22496 | 7548 ft | 164 kts | 74° |
| 2026-05-06 10:25 | -31.92759 | 117.23778 | 7548 ft | 164 kts | 74° |
| 2026-05-06 10:25 | -31.92414 | 117.25064 | 7548 ft | 165 kts | 74° |
| 2026-05-06 10:25 | -31.92070 | 117.26352 | 7549 ft | 165 kts | 74° |
| 2026-05-06 10:26 | -31.91729 | 117.27625 | 7550 ft | 165 kts | 74° |
| 2026-05-06 10:26 | -31.91383 | 117.28920 | 7553 ft | 164 kts | 74° |
| 2026-05-06 10:26 | -31.91042 | 117.30198 | 7550 ft | 164 kts | 74° |
| 2026-05-06 10:26 | -31.90699 | 117.31475 | 7609 ft | 160 kts | 74° |
| 2026-05-06 10:27 | -31.90379 | 117.32636 | 7952 ft | 144 kts | 74° |
| 2026-05-06 10:27 | -31.90069 | 117.33741 | 8201 ft | 140 kts | 74° |
| 2026-05-06 10:27 | -31.89760 | 117.34828 | 8399 ft | 140 kts | 74° |
| 2026-05-06 10:27 | -31.89451 | 117.35913 | 8580 ft | 142 kts | 74° |
| 2026-05-06 10:28 | -31.89137 | 117.37022 | 8770 ft | 143 kts | 74° |
| 2026-05-06 10:28 | -31.88826 | 117.38129 | 8950 ft | 144 kts | 74° |
| 2026-05-06 10:28 | -31.88515 | 117.39248 | 9131 ft | 145 kts | 74° |
| 2026-05-06 10:28 | -31.88202 | 117.40376 | 9327 ft | 145 kts | 74° |
| 2026-05-06 10:29 | -31.87882 | 117.41521 | 9498 ft | 147 kts | 74° |
| 2026-05-06 10:29 | -31.87558 | 117.42690 | 9535 ft | 156 kts | 74° |
| 2026-05-06 10:29 | -31.87215 | 117.43928 | 9537 ft | 162 kts | 74° |
| 2026-05-06 10:29 | -31.86863 | 117.45202 | 9537 ft | 166 kts | 74° |
| 2026-05-06 10:30 | -31.86502 | 117.46515 | 9535 ft | 168 kts | 74° |
| 2026-05-06 10:30 | -31.86143 | 117.47819 | 9532 ft | 170 kts | 74° |
| 2026-05-06 10:30 | -31.85776 | 117.49153 | 9532 ft | 171 kts | 74° |
| 2026-05-06 10:30 | -31.85409 | 117.50483 | 9529 ft | 171 kts | 74° |
| 2026-05-06 10:31 | -31.85042 | 117.51813 | 9524 ft | 171 kts | 74° |
| 2026-05-06 10:31 | -31.84674 | 117.53142 | 9526 ft | 171 kts | 74° |
| 2026-05-06 10:31 | -31.84303 | 117.54478 | 9525 ft | 172 kts | 74° |
| 2026-05-06 10:31 | -31.83931 | 117.55819 | 9526 ft | 172 kts | 74° |
| 2026-05-06 10:32 | -31.83565 | 117.57147 | 9530 ft | 172 kts | 74° |
| 2026-05-06 10:32 | -31.83194 | 117.58491 | 9528 ft | 173 kts | 74° |
| 2026-05-06 10:32 | -31.82822 | 117.59841 | 9526 ft | 173 kts | 74° |
| 2026-05-06 10:32 | -31.82454 | 117.61182 | 9528 ft | 172 kts | 74° |
| 2026-05-06 10:33 | -31.82086 | 117.62524 | 9531 ft | 172 kts | 74° |
| 2026-05-06 10:33 | -31.81719 | 117.63860 | 9532 ft | 171 kts | 74° |
| 2026-05-06 10:33 | -31.81357 | 117.65175 | 9534 ft | 171 kts | 74° |
| 2026-05-06 10:33 | -31.80990 | 117.66509 | 9541 ft | 170 kts | 74° |
| 2026-05-06 10:34 | -31.80623 | 117.67841 | 9545 ft | 171 kts | 74° |
| 2026-05-06 10:34 | -31.80258 | 117.69159 | 9544 ft | 171 kts | 73° |
| 2026-05-06 10:34 | -31.79854 | 117.70478 | 9543 ft | 172 kts | 72° |
| 2026-05-06 10:34 | -31.79457 | 117.71805 | 9545 ft | 172 kts | 73° |
| 2026-05-06 10:35 | -31.79069 | 117.73135 | 9541 ft | 172 kts | 73° |
| 2026-05-06 10:35 | -31.78697 | 117.74468 | 9543 ft | 172 kts | 74° |
| 2026-05-06 10:35 | -31.78331 | 117.75806 | 9546 ft | 171 kts | 74° |
| 2026-05-06 10:35 | -31.77966 | 117.77138 | 9547 ft | 171 kts | 74° |
| 2026-05-06 10:36 | -31.77600 | 117.78473 | 9544 ft | 171 kts | 74° |
| 2026-05-06 10:36 | -31.77238 | 117.79792 | 9543 ft | 171 kts | 74° |
| 2026-05-06 10:36 | -31.76872 | 117.81121 | 9539 ft | 170 kts | 74° |
| 2026-05-06 10:36 | -31.76507 | 117.82450 | 9542 ft | 170 kts | 74° |
| 2026-05-06 10:37 | -31.76143 | 117.83778 | 9541 ft | 171 kts | 74° |
| 2026-05-06 10:37 | -31.75781 | 117.85103 | 9545 ft | 171 kts | 74° |
| 2026-05-06 10:37 | -31.75421 | 117.86425 | 9545 ft | 172 kts | 74° |
| 2026-05-06 10:37 | -31.75038 | 117.87764 | 9545 ft | 172 kts | 73° |
| 2026-05-06 10:38 | -31.74657 | 117.89087 | 9541 ft | 172 kts | 73° |
| 2026-05-06 10:38 | -31.74270 | 117.90425 | 9541 ft | 172 kts | 73° |
| 2026-05-06 10:38 | -31.73886 | 117.91764 | 9540 ft | 172 kts | 73° |
| 2026-05-06 10:38 | -31.73503 | 117.93088 | 9541 ft | 172 kts | 73° |
| 2026-05-06 10:39 | -31.73115 | 117.94423 | 9542 ft | 172 kts | 73° |
| 2026-05-06 10:39 | -31.72734 | 117.95734 | 9542 ft | 171 kts | 73° |
| 2026-05-06 10:39 | -31.72351 | 117.97059 | 9540 ft | 171 kts | 73° |
| 2026-05-06 10:39 | -31.71967 | 117.98382 | 9542 ft | 171 kts | 73° |
| 2026-05-06 10:40 | -31.71584 | 117.99705 | 9543 ft | 171 kts | 73° |
| 2026-05-06 10:40 | -31.71203 | 118.01021 | 9543 ft | 171 kts | 73° |
| 2026-05-06 10:40 | -31.70818 | 118.02354 | 9543 ft | 171 kts | 73° |
| 2026-05-06 10:40 | -31.70439 | 118.03671 | 9545 ft | 172 kts | 73° |
| 2026-05-06 10:41 | -31.70059 | 118.04996 | 9545 ft | 172 kts | 73° |
| 2026-05-06 10:41 | -31.69674 | 118.06342 | 9545 ft | 172 kts | 73° |
| 2026-05-06 10:41 | -31.69293 | 118.07673 | 9542 ft | 172 kts | 73° |
| 2026-05-06 10:41 | -31.68914 | 118.09000 | 9541 ft | 172 kts | 73° |
| 2026-05-06 10:42 | -31.68537 | 118.10317 | 9539 ft | 172 kts | 73° |
| 2026-05-06 10:42 | -31.68155 | 118.11647 | 9537 ft | 171 kts | 73° |
| 2026-05-06 10:42 | -31.67774 | 118.12971 | 9534 ft | 171 kts | 73° |
| 2026-05-06 10:42 | -31.67392 | 118.14296 | 9538 ft | 171 kts | 73° |
| 2026-05-06 10:43 | -31.67011 | 118.15617 | 9539 ft | 171 kts | 73° |
| 2026-05-06 10:43 | -31.66633 | 118.16932 | 9545 ft | 171 kts | 73° |
| 2026-05-06 10:43 | -31.66254 | 118.18254 | 9552 ft | 171 kts | 73° |
| 2026-05-06 10:44 | -31.65491 | 118.20922 | 9551 ft | 172 kts | 73° |
| 2026-05-06 10:44 | -31.65111 | 118.22253 | 9550 ft | 172 kts | 73° |
| 2026-05-06 10:44 | -31.64731 | 118.23588 | 9548 ft | 172 kts | 73° |
| 2026-05-06 10:44 | -31.64354 | 118.24902 | 9544 ft | 172 kts | 73° |
| 2026-05-06 10:45 | -31.63973 | 118.26231 | 9541 ft | 171 kts | 73° |
| 2026-05-06 10:45 | -31.63593 | 118.27553 | 9540 ft | 171 kts | 73° |
| 2026-05-06 10:45 | -31.63210 | 118.28884 | 9541 ft | 171 kts | 73° |
| 2026-05-06 10:45 | -31.62808 | 118.30139 | 9446 ft | 161 kts | 65° |
| 2026-05-06 10:46 | -31.62111 | 118.31104 | 9427 ft | 145 kts | 40° |
| 2026-05-06 10:46 | -31.61243 | 118.31657 | 9248 ft | 144 kts | 28° |
| 2026-05-06 10:46 | -31.60297 | 118.32106 | 8948 ft | 147 kts | 27° |
| 2026-05-06 10:46 | -31.59396 | 118.32629 | 8697 ft | 143 kts | 31° |
| 2026-05-06 10:47 | -31.58459 | 118.33040 | 8413 ft | 144 kts | 15° |
| 2026-05-06 10:47 | -31.57480 | 118.33051 | 8183 ft | 144 kts | 353° |
| 2026-05-06 10:47 | -31.56559 | 118.32542 | 7848 ft | 151 kts | 321° |
| 2026-05-06 10:47 | -31.56067 | 118.31503 | 7635 ft | 147 kts | 280° |
| 2026-05-06 10:48 | -31.56199 | 118.30338 | 7402 ft | 143 kts | 243° |
| 2026-05-06 10:48 | -31.56796 | 118.29453 | 7129 ft | 139 kts | 212° |
| 2026-05-06 10:48 | -31.57669 | 118.29055 | 6844 ft | 133 kts | 178° |
| 2026-05-06 10:48 | -31.58526 | 118.29306 | 6557 ft | 124 kts | 140° |
| 2026-05-06 10:49 | -31.58993 | 118.30091 | 6272 ft | 118 kts | 99° |
| 2026-05-06 10:49 | -31.58834 | 118.30994 | 5999 ft | 118 kts | 57° |
| 2026-05-06 10:49 | -31.58133 | 118.31496 | 5738 ft | 118 kts | 22° |
| 2026-05-06 10:49 | -31.57360 | 118.31663 | 5476 ft | 108 kts | 15° |
| 2026-05-06 10:50 | -31.56635 | 118.31742 | 5235 ft | 101 kts | 13° |
| 2026-05-06 10:50 | -31.55939 | 118.31782 | 4960 ft | 101 kts | 10° |
| 2026-05-06 10:50 | -31.55260 | 118.31780 | 4739 ft | 96 kts | 8° |
| 2026-05-06 10:50 | -31.54600 | 118.31747 | 4498 ft | 92 kts | 18° |
| 2026-05-06 10:51 | -31.54142 | 118.32106 | 4274 ft | 75 kts | 71° |
| 2026-05-06 10:51 | -31.54176 | 118.32676 | 4038 ft | 76 kts | 122° |
| 2026-05-06 10:51 | -31.54693 | 118.32889 | 3792 ft | 94 kts | 180° |
| 2026-05-06 10:51 | -31.55252 | 118.32413 | 3550 ft | 107 kts | 233° |
| 2026-05-06 10:52 | -31.55407 | 118.31570 | 3329 ft | 108 kts | 292° |
| 2026-05-06 10:52 | -31.54911 | 118.31084 | 3092 ft | 88 kts | 15° |
| 2026-05-06 10:52 | -31.54393 | 118.31372 | 2818 ft | 80 kts | 46° |
| 2026-05-06 10:52 | -31.53945 | 118.31728 | 2628 ft | 77 kts | 44° |
| 2026-05-06 10:53 | -31.53493 | 118.32072 | 2429 ft | 82 kts | 46° |
| 2026-05-06 10:53 | -31.53005 | 118.32474 | 2371 ft | 88 kts | 43° |
| 2026-05-06 10:53 | -31.52394 | 118.32724 | 2318 ft | 99 kts | 15° |
| 2026-05-06 10:53 | -31.51690 | 118.32593 | 2288 ft | 104 kts | 3° |
| 2026-05-06 10:54 | -31.50978 | 118.32509 | 2276 ft | 99 kts | 10° |
| 2026-05-06 10:54 | -31.50297 | 118.32473 | 2287 ft | 99 kts | 2° |
| 2026-05-06 10:54 | -31.49722 | 118.31965 | 2261 ft | 116 kts | 295° |
| 2026-05-06 10:54 | -31.49624 | 118.31028 | 2261 ft | 114 kts | 269° |
| 2026-05-06 10:55 | -31.49589 | 118.30100 | 2265 ft | 113 kts | 275° |
| 2026-05-06 10:55 | -31.49521 | 118.29188 | 2260 ft | 113 kts | 274° |
| 2026-05-06 10:55 | -31.49643 | 118.28336 | 2218 ft | 96 kts | 217° |
| 2026-05-06 10:55 | -31.50181 | 118.28109 | 2097 ft | 79 kts | 170° |
| 2026-05-06 10:56 | -31.50722 | 118.28078 | 2033 ft | 77 kts | 167° |
| 2026-05-06 10:56 | -31.51253 | 118.28064 | 1943 ft | 76 kts | 166° |
| 2026-05-06 10:56 | -31.51668 | 118.28299 | 1828 ft | 62 kts | 117° |
| 2026-05-06 10:56 | -31.51806 | 118.28741 | 1766 ft | 58 kts | 101° |
| 2026-05-06 10:57 | -31.51881 | 118.29219 | 1657 ft | 59 kts | 99° |
| 2026-05-06 10:57 | -31.51952 | 118.29682 | 1560 ft | 58 kts | 101° |
| 2026-05-06 10:57 | -31.52000 | 118.30163 | 1450 ft | 60 kts | 101° |
| 2026-05-06 10:57 | -31.52058 | 118.30641 | 1366 ft | 58 kts | 97° |
| 2026-05-06 10:58 | -31.52104 | 118.31110 | 1332 ft | 57 kts | 98° |
| 2026-05-06 10:58 | -31.52144 | 118.31567 | 1294 ft | 55 kts | 99° |
| 2026-05-06 10:58 | -31.52185 | 118.32011 | 1261 ft | 48 kts | 97° |
| 2026-05-06 10:58 | -31.52218 | 118.32217 | 1257 ft | 8 kts | 179° |
| 2026-05-06 10:59 | -31.52270 | 118.32201 | 1257 ft | 7 kts | 264° |
| 2026-05-06 10:59 | -31.52266 | 118.32134 | 1258 ft | 8 kts | 276° |
| 2026-05-06 10:59 | -31.52259 | 118.32059 | 1259 ft | 9 kts | 277° |
| 2026-05-06 10:59 | -31.52252 | 118.31977 | 1260 ft | 10 kts | 273° |
| 2026-05-06 11:00 | -31.52272 | 118.31934 | 1260 ft | 7 kts | 175° |
| 2026-05-06 11:00 | -31.52310 | 118.31947 | 1260 ft | 3 kts | 186° |
| 2026-05-06 11:00 | -31.52311 | 118.31947 | 1260 ft | 0 kts | 188° |